sensor_id;sensor_type;location;lat;lon;timestamp;P1;durP1;ratioP1;P2;durP2;ratioP2
32198;SDS011;19221;42.656;21.156;2022-09-20T00:01:18;4.03;;;3.60;;
32198;SDS011;19221;42.656;21.156;2022-09-20T00:03:45;5.80;;;3.42;;
32198;SDS011;19221;42.656;21.156;2022-09-20T00:06:12;9.05;;;3.60;;
32198;SDS011;19221;42.656;21.156;2022-09-20T00:08:39;4.13;;;3.20;;
32198;SDS011;19221;42.656;21.156;2022-09-20T00:11:06;6.32;;;3.60;;
32198;SDS011;19221;42.656;21.156;2022-09-20T00:13:32;3.75;;;3.35;;
32198;SDS011;19221;42.656;21.156;2022-09-20T00:15:58;3.97;;;2.85;;
32198;SDS011;19221;42.656;21.156;2022-09-20T00:18:25;3.45;;;2.88;;
32198;SDS011;19221;42.656;21.156;2022-09-20T00:20:51;4.70;;;3.10;;
32198;SDS011;19221;42.656;21.156;2022-09-20T00:23:17;4.78;;;3.45;;
32198;SDS011;19221;42.656;21.156;2022-09-20T00:25:43;5.35;;;3.63;;
32198;SDS011;19221;42.656;21.156;2022-09-20T00:28:09;4.53;;;3.60;;
32198;SDS011;19221;42.656;21.156;2022-09-20T00:30:35;4.28;;;3.38;;
32198;SDS011;19221;42.656;21.156;2022-09-20T00:33:01;3.47;;;3.10;;
32198;SDS011;19221;42.656;21.156;2022-09-20T00:35:27;4.72;;;3.83;;
32198;SDS011;19221;42.656;21.156;2022-09-20T00:37:53;5.20;;;3.88;;
32198;SDS011;19221;42.656;21.156;2022-09-20T00:40:20;6.57;;;4.63;;
32198;SDS011;19221;42.656;21.156;2022-09-20T00:42:46;9.70;;;4.00;;
32198;SDS011;19221;42.656;21.156;2022-09-20T00:48:13;4.90;;;3.63;;
32198;SDS011;19221;42.656;21.156;2022-09-20T00:53:17;3.80;;;3.33;;
32198;SDS011;19221;42.656;21.156;2022-09-20T00:55:46;3.60;;;3.00;;
32198;SDS011;19221;42.656;21.156;2022-09-20T00:58:14;4.70;;;3.85;;
32198;SDS011;19221;42.656;21.156;2022-09-20T01:00:40;4.82;;;3.58;;
32198;SDS011;19221;42.656;21.156;2022-09-20T01:03:07;3.95;;;3.10;;
32198;SDS011;19221;42.656;21.156;2022-09-20T01:05:34;7.60;;;3.22;;
32198;SDS011;19221;42.656;21.156;2022-09-20T01:08:00;4.20;;;3.42;;
32198;SDS011;19221;42.656;21.156;2022-09-20T01:10:26;3.00;;;2.65;;
32198;SDS011;19221;42.656;21.156;2022-09-20T01:12:52;3.30;;;3.00;;
32198;SDS011;19221;42.656;21.156;2022-09-20T01:15:21;6.53;;;3.60;;
32198;SDS011;19221;42.656;21.156;2022-09-20T01:17:49;4.50;;;3.13;;
32198;SDS011;19221;42.656;21.156;2022-09-20T01:20:50;5.03;;;2.90;;
32198;SDS011;19221;42.656;21.156;2022-09-20T01:23:27;3.05;;;2.85;;
32198;SDS011;19221;42.656;21.156;2022-09-20T01:28:39;5.97;;;3.72;;
32198;SDS011;19221;42.656;21.156;2022-09-20T01:31:17;6.75;;;4.10;;
32198;SDS011;19221;42.656;21.156;2022-09-20T01:36:23;5.93;;;3.97;;
32198;SDS011;19221;42.656;21.156;2022-09-20T01:41:35;8.25;;;4.82;;
32198;SDS011;19221;42.656;21.156;2022-09-20T01:44:12;5.78;;;4.40;;
32198;SDS011;19221;42.656;21.156;2022-09-20T01:46:41;6.90;;;4.10;;
32198;SDS011;19221;42.656;21.156;2022-09-20T01:49:27;5.88;;;3.70;;
32198;SDS011;19221;42.656;21.156;2022-09-20T01:54:42;4.32;;;3.92;;
32198;SDS011;19221;42.656;21.156;2022-09-20T01:59:51;6.30;;;3.50;;
32198;SDS011;19221;42.656;21.156;2022-09-20T02:07:49;3.70;;;3.40;;
32198;SDS011;19221;42.656;21.156;2022-09-20T02:12:54;3.80;;;3.45;;
32198;SDS011;19221;42.656;21.156;2022-09-20T02:28:22;4.50;;;3.72;;
32198;SDS011;19221;42.656;21.156;2022-09-20T02:33:28;10.25;;;4.75;;
32198;SDS011;19221;42.656;21.156;2022-09-20T02:49:22;6.90;;;4.32;;
32198;SDS011;19221;42.656;21.156;2022-09-20T02:51:52;6.55;;;4.32;;
32198;SDS011;19221;42.656;21.156;2022-09-20T02:59:44;6.90;;;4.85;;
32198;SDS011;19221;42.656;21.156;2022-09-20T03:02:23;4.50;;;4.10;;
32198;SDS011;19221;42.656;21.156;2022-09-20T03:04:54;4.97;;;4.07;;
32198;SDS011;19221;42.656;21.156;2022-09-20T03:07:32;5.70;;;4.13;;
32198;SDS011;19221;42.656;21.156;2022-09-20T03:10:06;5.22;;;3.63;;
32198;SDS011;19221;42.656;21.156;2022-09-20T03:12:48;3.90;;;3.53;;
32198;SDS011;19221;42.656;21.156;2022-09-20T03:18:06;4.75;;;3.75;;
32198;SDS011;19221;42.656;21.156;2022-09-20T03:20:35;4.50;;;3.35;;
32198;SDS011;19221;42.656;21.156;2022-09-20T03:32:34;4.43;;;3.75;;
32198;SDS011;19221;42.656;21.156;2022-09-20T03:39:24;4.88;;;3.70;;
32198;SDS011;19221;42.656;21.156;2022-09-20T03:41:59;4.95;;;3.97;;
32198;SDS011;19221;42.656;21.156;2022-09-20T03:47:06;4.65;;;4.18;;
32198;SDS011;19221;42.656;21.156;2022-09-20T03:49:40;3.92;;;3.58;;
32198;SDS011;19221;42.656;21.156;2022-09-20T04:05:09;5.68;;;4.50;;
32198;SDS011;19221;42.656;21.156;2022-09-20T04:10:23;4.30;;;3.53;;
32198;SDS011;19221;42.656;21.156;2022-09-20T04:15:45;4.68;;;4.03;;
32198;SDS011;19221;42.656;21.156;2022-09-20T04:18:21;4.40;;;4.00;;
32198;SDS011;19221;42.656;21.156;2022-09-20T04:23:35;4.13;;;3.80;;
32198;SDS011;19221;42.656;21.156;2022-09-20T04:26:02;4.93;;;3.58;;
32198;SDS011;19221;42.656;21.156;2022-09-20T04:31:37;6.07;;;3.72;;
32198;SDS011;19221;42.656;21.156;2022-09-20T04:34:18;6.50;;;4.68;;
32198;SDS011;19221;42.656;21.156;2022-09-20T04:36:54;4.50;;;4.00;;
32198;SDS011;19221;42.656;21.156;2022-09-20T04:39:41;4.22;;;3.83;;
32198;SDS011;19221;42.656;21.156;2022-09-20T04:42:16;4.65;;;4.20;;
32198;SDS011;19221;42.656;21.156;2022-09-20T04:57:34;4.70;;;3.88;;
32198;SDS011;19221;42.656;21.156;2022-09-20T05:02:54;4.03;;;3.63;;
32198;SDS011;19221;42.656;21.156;2022-09-20T05:05:42;3.92;;;3.50;;
32198;SDS011;19221;42.656;21.156;2022-09-20T05:15:59;8.82;;;6.07;;
32198;SDS011;19221;42.656;21.156;2022-09-20T05:18:49;7.78;;;5.93;;
32198;SDS011;19221;42.656;21.156;2022-09-20T05:23:59;12.02;;;7.40;;
32198;SDS011;19221;42.656;21.156;2022-09-20T05:26:40;14.13;;;6.25;;
32198;SDS011;19221;42.656;21.156;2022-09-20T05:31:36;6.95;;;5.78;;
32198;SDS011;19221;42.656;21.156;2022-09-20T05:34:06;6.25;;;5.13;;
32198;SDS011;19221;42.656;21.156;2022-09-20T05:36:53;6.13;;;5.03;;
32198;SDS011;19221;42.656;21.156;2022-09-20T05:39:31;6.95;;;4.72;;
32198;SDS011;19221;42.656;21.156;2022-09-20T05:42:03;6.43;;;4.57;;
32198;SDS011;19221;42.656;21.156;2022-09-20T05:50:04;5.22;;;4.10;;
32198;SDS011;19221;42.656;21.156;2022-09-20T05:55:43;3.83;;;3.30;;
32198;SDS011;19221;42.656;21.156;2022-09-20T06:00:52;3.85;;;3.40;;
32198;SDS011;19221;42.656;21.156;2022-09-20T06:03:29;7.65;;;5.70;;
32198;SDS011;19221;42.656;21.156;2022-09-20T06:22:10;7.55;;;6.32;;
32198;SDS011;19221;42.656;21.156;2022-09-20T06:24:54;10.27;;;5.95;;
32198;SDS011;19221;42.656;21.156;2022-09-20T06:27:25;8.50;;;5.82;;
32198;SDS011;19221;42.656;21.156;2022-09-20T06:30:03;7.32;;;5.05;;
32198;SDS011;19221;42.656;21.156;2022-09-20T06:32:30;5.80;;;4.55;;
32198;SDS011;19221;42.656;21.156;2022-09-20T06:34:56;10.88;;;5.90;;
32198;SDS011;19221;42.656;21.156;2022-09-20T06:37:43;6.50;;;5.72;;
32198;SDS011;19221;42.656;21.156;2022-09-20T06:40:47;4.57;;;4.07;;
32198;SDS011;19221;42.656;21.156;2022-09-20T06:43:34;7.85;;;4.13;;
32198;SDS011;19221;42.656;21.156;2022-09-20T06:46:00;5.53;;;3.88;;
32198;SDS011;19221;42.656;21.156;2022-09-20T06:48:25;4.70;;;3.88;;
32198;SDS011;19221;42.656;21.156;2022-09-20T06:50:51;7.85;;;4.50;;
32198;SDS011;19221;42.656;21.156;2022-09-20T06:53:26;14.07;;;9.38;;
32198;SDS011;19221;42.656;21.156;2022-09-20T06:55:52;16.48;;;11.57;;
32198;SDS011;19221;42.656;21.156;2022-09-20T06:58:18;19.85;;;12.30;;
32198;SDS011;19221;42.656;21.156;2022-09-20T07:00:43;8.77;;;6.47;;
32198;SDS011;19221;42.656;21.156;2022-09-20T07:03:09;7.97;;;5.13;;
32198;SDS011;19221;42.656;21.156;2022-09-20T07:05:38;7.35;;;4.70;;
32198;SDS011;19221;42.656;21.156;2022-09-20T07:08:03;5.75;;;3.95;;
32198;SDS011;19221;42.656;21.156;2022-09-20T07:10:29;6.53;;;3.65;;
32198;SDS011;19221;42.656;21.156;2022-09-20T07:12:58;5.13;;;3.40;;
32198;SDS011;19221;42.656;21.156;2022-09-20T07:15:25;5.82;;;3.70;;
32198;SDS011;19221;42.656;21.156;2022-09-20T07:17:51;9.30;;;3.35;;
32198;SDS011;19221;42.656;21.156;2022-09-20T07:20:17;6.45;;;3.40;;
32198;SDS011;19221;42.656;21.156;2022-09-20T07:22:45;4.18;;;3.13;;
32198;SDS011;19221;42.656;21.156;2022-09-20T07:25:11;3.20;;;2.90;;
32198;SDS011;19221;42.656;21.156;2022-09-20T07:27:36;3.47;;;3.00;;
32198;SDS011;19221;42.656;21.156;2022-09-20T07:30:04;5.68;;;3.63;;
32198;SDS011;19221;42.656;21.156;2022-09-20T07:32:31;3.45;;;3.10;;
32198;SDS011;19221;42.656;21.156;2022-09-20T07:34:57;3.30;;;3.00;;
32198;SDS011;19221;42.656;21.156;2022-09-20T07:37:22;5.43;;;4.20;;
32198;SDS011;19221;42.656;21.156;2022-09-20T07:39:48;6.07;;;4.82;;
32198;SDS011;19221;42.656;21.156;2022-09-20T07:42:14;17.65;;;7.25;;
32198;SDS011;19221;42.656;21.156;2022-09-20T07:44:40;8.23;;;4.82;;
32198;SDS011;19221;42.656;21.156;2022-09-20T07:47:07;15.43;;;7.50;;
32198;SDS011;19221;42.656;21.156;2022-09-20T07:49:34;13.90;;;5.80;;
32198;SDS011;19221;42.656;21.156;2022-09-20T07:52:00;13.05;;;6.38;;
32198;SDS011;19221;42.656;21.156;2022-09-20T07:54:26;13.70;;;5.80;;
32198;SDS011;19221;42.656;21.156;2022-09-20T07:56:52;8.80;;;5.30;;
32198;SDS011;19221;42.656;21.156;2022-09-20T07:59:18;7.13;;;4.15;;
32198;SDS011;19221;42.656;21.156;2022-09-20T08:01:44;5.95;;;4.05;;
32198;SDS011;19221;42.656;21.156;2022-09-20T08:04:10;7.75;;;4.15;;
32198;SDS011;19221;42.656;21.156;2022-09-20T08:06:40;6.45;;;3.45;;
32198;SDS011;19221;42.656;21.156;2022-09-20T08:09:06;4.25;;;3.78;;
32198;SDS011;19221;42.656;21.156;2022-09-20T08:11:32;6.65;;;3.92;;
32198;SDS011;19221;42.656;21.156;2022-09-20T08:13:58;5.75;;;3.75;;
32198;SDS011;19221;42.656;21.156;2022-09-20T08:16:25;9.25;;;3.33;;
32198;SDS011;19221;42.656;21.156;2022-09-20T08:18:55;9.13;;;3.40;;
32198;SDS011;19221;42.656;21.156;2022-09-20T08:21:22;5.53;;;2.97;;
32198;SDS011;19221;42.656;21.156;2022-09-20T08:23:48;5.45;;;2.70;;
32198;SDS011;19221;42.656;21.156;2022-09-20T08:26:17;3.58;;;2.95;;
32198;SDS011;19221;42.656;21.156;2022-09-20T08:28:45;4.57;;;3.43;;
32198;SDS011;19221;42.656;21.156;2022-09-20T08:31:12;7.13;;;3.38;;
32198;SDS011;19221;42.656;21.156;2022-09-20T08:33:38;4.32;;;2.47;;
32198;SDS011;19221;42.656;21.156;2022-09-20T08:36:10;4.20;;;2.88;;
32198;SDS011;19221;42.656;21.156;2022-09-20T08:38:36;4.72;;;3.45;;
32198;SDS011;19221;42.656;21.156;2022-09-20T08:41:13;6.53;;;2.90;;
32198;SDS011;19221;42.656;21.156;2022-09-20T08:43:50;6.22;;;4.50;;
32198;SDS011;19221;42.656;21.156;2022-09-20T08:46:18;17.52;;;4.82;;
32198;SDS011;19221;42.656;21.156;2022-09-20T08:48:45;8.77;;;5.00;;
32198;SDS011;19221;42.656;21.156;2022-09-20T08:51:13;9.02;;;5.32;;
32198;SDS011;19221;42.656;21.156;2022-09-20T08:56:08;4.50;;;2.92;;
32198;SDS011;19221;42.656;21.156;2022-09-20T08:58:36;2.90;;;2.70;;
32198;SDS011;19221;42.656;21.156;2022-09-20T09:01:04;2.47;;;2.28;;
32198;SDS011;19221;42.656;21.156;2022-09-20T09:03:30;2.40;;;2.25;;
32198;SDS011;19221;42.656;21.156;2022-09-20T09:05:56;2.40;;;2.20;;
32198;SDS011;19221;42.656;21.156;2022-09-20T09:08:24;7.30;;;4.30;;
32198;SDS011;19221;42.656;21.156;2022-09-20T09:10:52;2.50;;;2.30;;
32198;SDS011;19221;42.656;21.156;2022-09-20T09:16:08;5.78;;;4.35;;
32198;SDS011;19221;42.656;21.156;2022-09-20T09:18:37;5.40;;;3.92;;
32198;SDS011;19221;42.656;21.156;2022-09-20T09:21:03;2.85;;;2.60;;
32198;SDS011;19221;42.656;21.156;2022-09-20T09:23:36;3.03;;;2.40;;
32198;SDS011;19221;42.656;21.156;2022-09-20T09:26:11;3.00;;;2.70;;
32198;SDS011;19221;42.656;21.156;2022-09-20T09:28:39;19.30;;;11.25;;
32198;SDS011;19221;42.656;21.156;2022-09-20T09:31:24;5.03;;;3.70;;
32198;SDS011;19221;42.656;21.156;2022-09-20T09:33:53;3.92;;;2.40;;
32198;SDS011;19221;42.656;21.156;2022-09-20T09:36:20;11.55;;;6.65;;
32198;SDS011;19221;42.656;21.156;2022-09-20T09:38:47;11.45;;;7.13;;
32198;SDS011;19221;42.656;21.156;2022-09-20T09:43:42;7.97;;;5.25;;
32198;SDS011;19221;42.656;21.156;2022-09-20T09:46:18;11.75;;;7.57;;
32198;SDS011;19221;42.656;21.156;2022-09-20T09:48:46;4.25;;;3.40;;
32198;SDS011;19221;42.656;21.156;2022-09-20T09:51:15;3.35;;;2.45;;
32198;SDS011;19221;42.656;21.156;2022-09-20T09:53:41;3.58;;;2.90;;
32198;SDS011;19221;42.656;21.156;2022-09-20T10:04:15;5.20;;;4.20;;
32198;SDS011;19221;42.656;21.156;2022-09-20T10:06:47;4.68;;;3.17;;
32198;SDS011;19221;42.656;21.156;2022-09-20T10:09:27;3.40;;;3.10;;
32198;SDS011;19221;42.656;21.156;2022-09-20T10:14:33;4.63;;;3.88;;
32198;SDS011;19221;42.656;21.156;2022-09-20T10:17:08;2.20;;;2.00;;
32198;SDS011;19221;42.656;21.156;2022-09-20T10:22:13;2.38;;;2.17;;
32198;SDS011;19221;42.656;21.156;2022-09-20T10:24:47;4.63;;;3.55;;
32198;SDS011;19221;42.656;21.156;2022-09-20T10:38:04;3.03;;;2.35;;
32198;SDS011;19221;42.656;21.156;2022-09-20T10:40:39;6.10;;;4.15;;
32198;SDS011;19221;42.656;21.156;2022-09-20T10:48:26;3.58;;;3.28;;
32198;SDS011;19221;42.656;21.156;2022-09-20T10:51:06;2.97;;;2.00;;
32198;SDS011;19221;42.656;21.156;2022-09-20T11:01:33;2.30;;;2.10;;
32198;SDS011;19221;42.656;21.156;2022-09-20T11:09:15;4.10;;;2.70;;
32198;SDS011;19221;42.656;21.156;2022-09-20T11:11:42;2.97;;;2.05;;
32198;SDS011;19221;42.656;21.156;2022-09-20T11:14:26;3.13;;;2.72;;
32198;SDS011;19221;42.656;21.156;2022-09-20T11:19:28;2.95;;;2.00;;
32198;SDS011;19221;42.656;21.156;2022-09-20T11:32:20;2.00;;;1.90;;
32198;SDS011;19221;42.656;21.156;2022-09-20T11:37:13;2.67;;;2.45;;
32198;SDS011;19221;42.656;21.156;2022-09-20T11:40:14;2.17;;;2.08;;
32198;SDS011;19221;42.656;21.156;2022-09-20T11:42:32;2.35;;;2.20;;
32198;SDS011;19221;42.656;21.156;2022-09-20T11:44:59;2.20;;;2.10;;
32198;SDS011;19221;42.656;21.156;2022-09-20T11:47:27;2.80;;;2.60;;
32198;SDS011;19221;42.656;21.156;2022-09-20T11:50:00;2.40;;;2.20;;
32198;SDS011;19221;42.656;21.156;2022-09-20T11:57:41;1.98;;;1.88;;
32198;SDS011;19221;42.656;21.156;2022-09-20T12:00:07;2.28;;;2.10;;
32198;SDS011;19221;42.656;21.156;2022-09-20T12:02:47;2.75;;;1.98;;
32198;SDS011;19221;42.656;21.156;2022-09-20T12:08:01;1.92;;;1.80;;
32198;SDS011;19221;42.656;21.156;2022-09-20T12:10:29;1.90;;;1.80;;
32198;SDS011;19221;42.656;21.156;2022-09-20T12:13:00;2.78;;;2.08;;
32198;SDS011;19221;42.656;21.156;2022-09-20T12:25:59;2.65;;;2.45;;
32198;SDS011;19221;42.656;21.156;2022-09-20T12:28:32;2.53;;;2.33;;
32198;SDS011;19221;42.656;21.156;2022-09-20T12:41:27;2.40;;;2.20;;
32198;SDS011;19221;42.656;21.156;2022-09-20T12:47:35;2.83;;;2.47;;
32198;SDS011;19221;42.656;21.156;2022-09-20T12:49:47;2.20;;;2.10;;
32198;SDS011;19221;42.656;21.156;2022-09-20T12:52:50;2.20;;;2.10;;
32198;SDS011;19221;42.656;21.156;2022-09-20T12:55:30;4.85;;;4.10;;
32198;SDS011;19221;42.656;21.156;2022-09-20T13:00:28;2.47;;;1.77;;
32198;SDS011;19221;42.656;21.156;2022-09-20T13:02:57;2.10;;;1.90;;
32198;SDS011;19221;42.656;21.156;2022-09-20T13:05:39;2.33;;;2.13;;
32198;SDS011;19221;42.656;21.156;2022-09-20T13:08:12;3.40;;;2.00;;
32198;SDS011;19221;42.656;21.156;2022-09-20T13:10:41;2.00;;;1.90;;
32198;SDS011;19221;42.656;21.156;2022-09-20T13:13:12;2.30;;;2.10;;
32198;SDS011;19221;42.656;21.156;2022-09-20T13:15:39;2.40;;;2.20;;
32198;SDS011;19221;42.656;21.156;2022-09-20T13:18:13;2.30;;;2.10;;
32198;SDS011;19221;42.656;21.156;2022-09-20T13:20:40;3.03;;;2.50;;
32198;SDS011;19221;42.656;21.156;2022-09-20T13:23:06;2.80;;;2.60;;
32198;SDS011;19221;42.656;21.156;2022-09-20T13:25:31;2.95;;;2.72;;
32198;SDS011;19221;42.656;21.156;2022-09-20T13:30:39;3.85;;;2.30;;
32198;SDS011;19221;42.656;21.156;2022-09-20T13:35:45;3.05;;;2.53;;
32198;SDS011;19221;42.656;21.156;2022-09-20T13:38:13;2.85;;;2.40;;
32198;SDS011;19221;42.656;21.156;2022-09-20T13:40:45;2.40;;;2.20;;
32198;SDS011;19221;42.656;21.156;2022-09-20T13:46:09;2.58;;;2.38;;
32198;SDS011;19221;42.656;21.156;2022-09-20T13:48:35;2.67;;;2.47;;
32198;SDS011;19221;42.656;21.156;2022-09-20T13:51:00;2.70;;;2.50;;
32198;SDS011;19221;42.656;21.156;2022-09-20T13:53:27;2.75;;;2.30;;
32198;SDS011;19221;42.656;21.156;2022-09-20T13:55:55;2.80;;;2.60;;
32198;SDS011;19221;42.656;21.156;2022-09-20T14:00:50;3.38;;;3.08;;
32198;SDS011;19221;42.656;21.156;2022-09-20T14:03:18;3.22;;;2.92;;
32198;SDS011;19221;42.656;21.156;2022-09-20T14:05:47;3.78;;;3.00;;
32198;SDS011;19221;42.656;21.156;2022-09-20T14:08:24;2.60;;;2.40;;
32198;SDS011;19221;42.656;21.156;2022-09-20T14:11:02;3.53;;;2.75;;
32198;SDS011;19221;42.656;21.156;2022-09-20T14:13:28;3.25;;;2.95;;
32198;SDS011;19221;42.656;21.156;2022-09-20T14:15:55;5.45;;;3.47;;
32198;SDS011;19221;42.656;21.156;2022-09-20T14:18:22;5.25;;;2.67;;
32198;SDS011;19221;42.656;21.156;2022-09-20T14:20:49;3.03;;;2.70;;
32198;SDS011;19221;42.656;21.156;2022-09-20T14:23:18;2.67;;;2.10;;
32198;SDS011;19221;42.656;21.156;2022-09-20T14:26:04;3.67;;;2.20;;
32198;SDS011;19221;42.656;21.156;2022-09-20T14:28:30;3.97;;;2.83;;
32198;SDS011;19221;42.656;21.156;2022-09-20T14:31:02;3.13;;;2.83;;
32198;SDS011;19221;42.656;21.156;2022-09-20T14:33:30;2.95;;;2.60;;
32198;SDS011;19221;42.656;21.156;2022-09-20T14:35:56;3.28;;;3.08;;
32198;SDS011;19221;42.656;21.156;2022-09-20T14:38:23;4.60;;;2.78;;
32198;SDS011;19221;42.656;21.156;2022-09-20T14:40:49;3.45;;;3.15;;
32198;SDS011;19221;42.656;21.156;2022-09-20T14:43:23;3.63;;;3.33;;
32198;SDS011;19221;42.656;21.156;2022-09-20T14:45:50;3.85;;;3.00;;
32198;SDS011;19221;42.656;21.156;2022-09-20T14:50:43;4.05;;;3.65;;
32198;SDS011;19221;42.656;21.156;2022-09-20T14:55:55;5.80;;;3.25;;
32198;SDS011;19221;42.656;21.156;2022-09-20T14:58:21;7.05;;;3.10;;
32198;SDS011;19221;42.656;21.156;2022-09-20T15:00:50;4.03;;;3.60;;
32198;SDS011;19221;42.656;21.156;2022-09-20T15:03:25;5.80;;;4.10;;
32198;SDS011;19221;42.656;21.156;2022-09-20T15:05:51;4.72;;;3.65;;
32198;SDS011;19221;42.656;21.156;2022-09-20T15:08:17;4.97;;;3.78;;
32198;SDS011;19221;42.656;21.156;2022-09-20T15:10:44;4.22;;;3.17;;
32198;SDS011;19221;42.656;21.156;2022-09-20T15:13:11;3.45;;;3.17;;
32198;SDS011;19221;42.656;21.156;2022-09-20T15:15:37;3.20;;;3.00;;
32198;SDS011;19221;42.656;21.156;2022-09-20T15:18:04;3.47;;;2.90;;
32198;SDS011;19221;42.656;21.156;2022-09-20T15:20:30;3.22;;;2.92;;
32198;SDS011;19221;42.656;21.156;2022-09-20T15:22:56;3.40;;;3.10;;
32198;SDS011;19221;42.656;21.156;2022-09-20T15:25:23;3.42;;;3.13;;
32198;SDS011;19221;42.656;21.156;2022-09-20T15:27:49;5.43;;;3.80;;
32198;SDS011;19221;42.656;21.156;2022-09-20T15:30:16;5.72;;;3.40;;
32198;SDS011;19221;42.656;21.156;2022-09-20T15:32:44;3.65;;;3.30;;
32198;SDS011;19221;42.656;21.156;2022-09-20T15:35:10;4.95;;;4.22;;
32198;SDS011;19221;42.656;21.156;2022-09-20T15:37:36;4.65;;;3.47;;
32198;SDS011;19221;42.656;21.156;2022-09-20T15:40:03;4.00;;;3.63;;
32198;SDS011;19221;42.656;21.156;2022-09-20T15:42:29;4.55;;;3.55;;
32198;SDS011;19221;42.656;21.156;2022-09-20T15:44:54;3.58;;;3.28;;
32198;SDS011;19221;42.656;21.156;2022-09-20T15:47:21;5.32;;;3.10;;
32198;SDS011;19221;42.656;21.156;2022-09-20T15:49:50;3.63;;;3.33;;
32198;SDS011;19221;42.656;21.156;2022-09-20T15:52:17;3.97;;;3.10;;
32198;SDS011;19221;42.656;21.156;2022-09-20T15:54:49;4.68;;;3.00;;
32198;SDS011;19221;42.656;21.156;2022-09-20T15:57:17;7.03;;;3.90;;
32198;SDS011;19221;42.656;21.156;2022-09-20T15:59:43;5.35;;;3.78;;
32198;SDS011;19221;42.656;21.156;2022-09-20T16:02:10;3.85;;;3.55;;
32198;SDS011;19221;42.656;21.156;2022-09-20T16:04:37;8.27;;;4.35;;
32198;SDS011;19221;42.656;21.156;2022-09-20T16:07:03;6.65;;;4.43;;
32198;SDS011;19221;42.656;21.156;2022-09-20T16:09:30;5.13;;;4.38;;
32198;SDS011;19221;42.656;21.156;2022-09-20T16:11:55;5.75;;;4.00;;
32198;SDS011;19221;42.656;21.156;2022-09-20T16:14:24;6.10;;;4.03;;
32198;SDS011;19221;42.656;21.156;2022-09-20T16:16:50;6.03;;;4.38;;
32198;SDS011;19221;42.656;21.156;2022-09-20T16:19:16;5.10;;;4.57;;
32198;SDS011;19221;42.656;21.156;2022-09-20T16:21:42;8.77;;;4.68;;
32198;SDS011;19221;42.656;21.156;2022-09-20T16:24:08;6.70;;;5.20;;
32198;SDS011;19221;42.656;21.156;2022-09-20T16:26:37;5.45;;;3.65;;
32198;SDS011;19221;42.656;21.156;2022-09-20T16:29:03;8.27;;;5.32;;
32198;SDS011;19221;42.656;21.156;2022-09-20T16:34:09;9.25;;;5.15;;
32198;SDS011;19221;42.656;21.156;2022-09-20T16:36:36;11.52;;;7.75;;
32198;SDS011;19221;42.656;21.156;2022-09-20T16:39:01;11.98;;;8.05;;
32198;SDS011;19221;42.656;21.156;2022-09-20T16:41:27;13.07;;;7.75;;
32198;SDS011;19221;42.656;21.156;2022-09-20T16:43:54;12.88;;;6.60;;
32198;SDS011;19221;42.656;21.156;2022-09-20T16:46:23;10.98;;;6.93;;
32198;SDS011;19221;42.656;21.156;2022-09-20T16:51:23;8.95;;;5.65;;
32198;SDS011;19221;42.656;21.156;2022-09-20T16:53:50;9.68;;;5.85;;
32198;SDS011;19221;42.656;21.156;2022-09-20T16:56:23;10.32;;;6.53;;
32198;SDS011;19221;42.656;21.156;2022-09-20T16:58:50;7.45;;;6.03;;
32198;SDS011;19221;42.656;21.156;2022-09-20T17:01:16;10.65;;;7.10;;
32198;SDS011;19221;42.656;21.156;2022-09-20T17:03:42;14.43;;;7.82;;
32198;SDS011;19221;42.656;21.156;2022-09-20T17:06:09;11.15;;;8.07;;
32198;SDS011;19221;42.656;21.156;2022-09-20T17:08:35;12.30;;;7.88;;
32198;SDS011;19221;42.656;21.156;2022-09-20T17:11:05;12.60;;;6.85;;
32198;SDS011;19221;42.656;21.156;2022-09-20T17:13:36;9.90;;;6.30;;
32198;SDS011;19221;42.656;21.156;2022-09-20T17:16:06;12.75;;;7.03;;
32198;SDS011;19221;42.656;21.156;2022-09-20T17:18:33;17.35;;;8.50;;
32198;SDS011;19221;42.656;21.156;2022-09-20T17:21:03;12.73;;;8.15;;
32198;SDS011;19221;42.656;21.156;2022-09-20T17:23:29;16.13;;;10.02;;
32198;SDS011;19221;42.656;21.156;2022-09-20T17:28:58;13.88;;;9.00;;
32198;SDS011;19221;42.656;21.156;2022-09-20T17:31:24;18.60;;;10.15;;
32198;SDS011;19221;42.656;21.156;2022-09-20T17:33:53;14.20;;;8.05;;
32198;SDS011;19221;42.656;21.156;2022-09-20T17:36:19;14.88;;;9.20;;
32198;SDS011;19221;42.656;21.156;2022-09-20T17:38:46;14.98;;;8.60;;
32198;SDS011;19221;42.656;21.156;2022-09-20T17:41:15;18.25;;;9.20;;
32198;SDS011;19221;42.656;21.156;2022-09-20T17:43:42;13.65;;;8.13;;
32198;SDS011;19221;42.656;21.156;2022-09-20T17:46:12;13.02;;;8.13;;
32198;SDS011;19221;42.656;21.156;2022-09-20T17:48:38;11.95;;;8.70;;
32198;SDS011;19221;42.656;21.156;2022-09-20T17:51:04;15.85;;;10.13;;
32198;SDS011;19221;42.656;21.156;2022-09-20T17:53:31;21.20;;;12.20;;
32198;SDS011;19221;42.656;21.156;2022-09-20T17:55:57;16.90;;;9.20;;
32198;SDS011;19221;42.656;21.156;2022-09-20T17:58:24;20.20;;;9.70;;
32198;SDS011;19221;42.656;21.156;2022-09-20T18:00:50;11.80;;;8.90;;
32198;SDS011;19221;42.656;21.156;2022-09-20T18:03:21;13.38;;;8.50;;
32198;SDS011;19221;42.656;21.156;2022-09-20T18:05:46;14.77;;;8.88;;
32198;SDS011;19221;42.656;21.156;2022-09-20T18:08:14;12.35;;;8.95;;
32198;SDS011;19221;42.656;21.156;2022-09-20T18:10:40;15.98;;;8.25;;
32198;SDS011;19221;42.656;21.156;2022-09-20T18:13:05;15.20;;;9.13;;
32198;SDS011;19221;42.656;21.156;2022-09-20T18:15:31;14.85;;;8.73;;
32198;SDS011;19221;42.656;21.156;2022-09-20T18:17:57;18.90;;;11.80;;
32198;SDS011;19221;42.656;21.156;2022-09-20T18:20:23;17.60;;;9.63;;
32198;SDS011;19221;42.656;21.156;2022-09-20T18:22:49;15.25;;;9.10;;
32198;SDS011;19221;42.656;21.156;2022-09-20T18:25:15;13.43;;;8.63;;
32198;SDS011;19221;42.656;21.156;2022-09-20T18:27:40;14.82;;;8.48;;
32198;SDS011;19221;42.656;21.156;2022-09-20T18:30:06;11.77;;;8.20;;
32198;SDS011;19221;42.656;21.156;2022-09-20T18:32:32;11.85;;;8.68;;
32198;SDS011;19221;42.656;21.156;2022-09-20T18:34:58;13.43;;;8.43;;
32198;SDS011;19221;42.656;21.156;2022-09-20T18:37:24;13.60;;;8.52;;
32198;SDS011;19221;42.656;21.156;2022-09-20T18:39:50;9.05;;;6.90;;
32198;SDS011;19221;42.656;21.156;2022-09-20T18:42:15;12.13;;;7.05;;
32198;SDS011;19221;42.656;21.156;2022-09-20T18:44:41;12.15;;;7.50;;
32198;SDS011;19221;42.656;21.156;2022-09-20T18:47:08;11.30;;;7.57;;
32198;SDS011;19221;42.656;21.156;2022-09-20T18:49:34;11.05;;;7.30;;
32198;SDS011;19221;42.656;21.156;2022-09-20T18:52:00;12.57;;;8.43;;
32198;SDS011;19221;42.656;21.156;2022-09-20T18:54:26;13.68;;;8.70;;
32198;SDS011;19221;42.656;21.156;2022-09-20T18:56:56;10.23;;;8.68;;
32198;SDS011;19221;42.656;21.156;2022-09-20T18:59:23;16.00;;;9.43;;
32198;SDS011;19221;42.656;21.156;2022-09-20T19:25:39;8.32;;;5.80;;
32198;SDS011;19221;42.656;21.156;2022-09-20T19:28:09;10.70;;;6.47;;
32198;SDS011;19221;42.656;21.156;2022-09-20T19:30:35;8.27;;;6.28;;
32198;SDS011;19221;42.656;21.156;2022-09-20T19:33:02;9.02;;;6.57;;
32198;SDS011;19221;42.656;21.156;2022-09-20T19:35:30;8.15;;;6.63;;
32198;SDS011;19221;42.656;21.156;2022-09-20T19:38:02;9.50;;;6.70;;
32198;SDS011;19221;42.656;21.156;2022-09-20T19:40:33;11.25;;;7.40;;
32198;SDS011;19221;42.656;21.156;2022-09-20T19:48:26;11.88;;;8.27;;
32198;SDS011;19221;42.656;21.156;2022-09-20T19:50:53;11.35;;;7.93;;
32198;SDS011;19221;42.656;21.156;2022-09-20T19:53:21;13.15;;;7.43;;
32198;SDS011;19221;42.656;21.156;2022-09-20T19:55:52;13.20;;;8.07;;
32198;SDS011;19221;42.656;21.156;2022-09-20T19:58:19;10.77;;;7.88;;